createdAt,value
2022-12-04T00:03:30.300Z,27.07
2022-12-04T00:04:34.632Z,28.94
2022-12-04T00:05:38.912Z,30.93
2022-12-04T00:06:42.963Z,30.07
2022-12-04T00:07:48.527Z,32.44
2022-12-04T00:08:53.793Z,29.31
2022-12-04T00:09:57.900Z,36.56
2022-12-04T00:11:03.470Z,33.56
2022-12-04T00:12:07.794Z,32.00
2022-12-04T00:13:12.000Z,31.33
2022-12-04T00:14:16.385Z,31.81
2022-12-04T00:15:25.631Z,28.94
2022-12-04T00:16:29.114Z,28.87
2022-12-04T00:17:33.083Z,33.44
2022-12-04T00:18:37.778Z,21.06
2022-12-04T00:19:43.366Z,30.13
2022-12-04T00:20:48.158Z,33.33
2022-12-04T00:21:53.103Z,32.00
2022-12-04T00:22:59.849Z,29.00
2022-12-04T00:24:04.227Z,32.25
2022-12-04T00:25:08.473Z,29.69
2022-12-04T00:26:23.027Z,31.69
2022-12-04T00:27:27.024Z,32.19
2022-12-04T00:28:31.358Z,29.06
2022-12-04T00:29:35.319Z,23.73
2022-12-04T00:30:41.884Z,32.69
2022-12-04T00:31:46.674Z,28.27
2022-12-04T00:32:51.025Z,30.20
2022-12-04T00:33:55.786Z,30.44
2022-12-04T00:34:59.833Z,31.19
2022-12-04T00:36:10.152Z,30.50
2022-12-04T00:37:14.183Z,30.13
2022-12-04T00:38:18.252Z,28.47
2022-12-04T00:39:22.401Z,31.67
2022-12-04T00:40:26.535Z,33.44
2022-12-04T00:41:36.701Z,34.38
2022-12-04T00:42:40.837Z,35.31
2022-12-04T00:43:45.379Z,32.88
2022-12-04T00:44:49.365Z,35.44
2022-12-04T00:45:53.511Z,35.13
2022-12-04T00:46:57.648Z,32.56
2022-12-04T00:48:03.851Z,33.25
2022-12-04T00:49:08.049Z,28.62
2022-12-04T00:50:13.779Z,27.00
2022-12-04T00:51:20.715Z,33.75
2022-12-04T00:52:24.872Z,33.63
2022-12-04T00:53:29.014Z,33.94
2022-12-04T00:54:33.091Z,32.13
2022-12-04T00:55:41.035Z,31.73
2022-12-04T00:56:45.200Z,35.06
2022-12-04T00:57:50.129Z,32.75
2022-12-04T00:59:00.122Z,28.47
2022-12-04T01:00:05.203Z,21.37
2022-12-04T01:01:15.169Z,35.38
2022-12-04T01:02:22.244Z,32.40
2022-12-04T01:03:26.379Z,36.94
2022-12-04T01:04:30.495Z,35.67
2022-12-04T01:05:40.505Z,34.44
2022-12-04T01:06:47.918Z,35.75
2022-12-04T01:07:52.065Z,28.12
2022-12-04T01:08:58.134Z,30.81
2022-12-04T01:10:02.201Z,38.93
2022-12-04T01:11:06.923Z,33.33
2022-12-04T01:12:12.996Z,35.00
2022-12-04T01:13:16.800Z,34.81
2022-12-04T01:14:20.899Z,35.50
2022-12-04T01:15:25.014Z,32.25
2022-12-04T01:16:32.408Z,31.60
2022-12-04T01:17:36.977Z,34.13
2022-12-04T01:18:40.839Z,35.00
2022-12-04T01:19:44.809Z,38.13
2022-12-04T01:20:53.077Z,31.75
2022-12-04T01:21:57.085Z,33.80
2022-12-04T01:23:01.233Z,37.73
2022-12-04T01:24:06.017Z,35.67
2022-12-04T01:25:12.024Z,30.75
2022-12-04T01:26:16.126Z,37.67
2022-12-04T01:27:20.223Z,33.25
2022-12-04T01:28:25.465Z,36.13
2022-12-04T01:29:29.504Z,33.25
2022-12-04T01:30:33.549Z,32.87
2022-12-04T01:31:39.185Z,35.44
2022-12-04T01:32:43.276Z,39.40
2022-12-04T01:33:48.668Z,36.56
2022-12-04T01:34:55.390Z,33.20
2022-12-04T01:36:00.997Z,33.20
2022-12-04T01:37:05.029Z,34.00
2022-12-04T01:38:09.059Z,32.19
2022-12-04T01:39:13.599Z,34.20
2022-12-04T01:40:18.030Z,32.31
2022-12-04T01:41:25.356Z,33.00
2022-12-04T01:42:29.404Z,36.93
2022-12-04T01:43:35.840Z,33.38
2022-12-04T01:44:44.728Z,36.40
2022-12-04T01:45:50.763Z,32.67
2022-12-04T01:46:57.188Z,33.88
2022-12-04T01:48:04.142Z,33.31
2022-12-04T01:49:11.232Z,27.87
2022-12-04T01:50:15.543Z,36.50
2022-12-04T01:51:22.587Z,33.75
2022-12-04T01:52:27.678Z,33.94
2022-12-04T01:53:33.647Z,39.31
2022-12-04T01:54:40.705Z,38.44
2022-12-04T01:55:45.679Z,32.80
2022-12-04T01:57:01.667Z,33.56
2022-12-04T01:58:06.675Z,35.63
2022-12-04T01:59:14.054Z,37.00
2022-12-04T02:00:18.260Z,36.93
2022-12-04T02:01:23.067Z,36.80
2022-12-04T02:02:39.384Z,33.88
2022-12-04T02:03:43.991Z,30.53
2022-12-04T02:04:48.885Z,28.93
2022-12-04T02:05:53.065Z,31.07
2022-12-04T02:06:57.076Z,31.31
2022-12-04T02:08:03.711Z,33.53
2022-12-04T02:09:08.849Z,34.33
2022-12-04T02:10:14.181Z,34.25
2022-12-04T02:11:27.349Z,25.31
2022-12-04T02:12:49.391Z,28.06
2022-12-04T02:14:08.148Z,25.27
2022-12-04T02:15:31.348Z,26.94
2022-12-04T02:16:43.641Z,30.81
2022-12-04T02:18:25.215Z,32.44
2022-12-04T02:19:59.335Z,30.19
2022-12-04T04:49:16.231Z,26.00
2022-12-04T04:50:24.876Z,32.75
2022-12-04T04:51:31.447Z,29.12
2022-12-04T04:52:38.612Z,27.20
2022-12-04T04:55:16.578Z,30.19
2022-12-04T04:56:21.707Z,35.88
2022-12-04T04:57:34.306Z,21.87
2022-12-04T04:58:38.617Z,37.47
2022-12-04T04:59:42.612Z,32.53
2022-12-04T05:01:01.534Z,34.07
2022-12-04T05:02:05.804Z,30.00
2022-12-04T05:03:10.771Z,34.75
2022-12-04T05:04:15.329Z,33.19
2022-12-04T05:05:19.383Z,36.00
2022-12-04T05:06:29.851Z,33.94
2022-12-04T05:07:36.589Z,27.80
2022-12-04T05:08:41.333Z,32.94
2022-12-04T05:09:45.402Z,34.00
2022-12-04T05:10:53.992Z,36.40
2022-12-04T05:12:05.158Z,33.44
2022-12-04T05:13:06.112Z,30.94
2022-12-04T05:14:13.280Z,33.44
2022-12-04T05:15:23.330Z,29.94
2022-12-04T05:16:27.718Z,28.62
2022-12-04T05:17:35.934Z,29.94
2022-12-04T05:18:43.116Z,33.20
2022-12-04T05:19:47.266Z,33.94
2022-12-04T05:20:53.851Z,30.25
2022-12-04T05:21:57.918Z,32.13
2022-12-04T05:23:02.133Z,26.80
2022-12-04T05:24:10.465Z,33.40
2022-12-04T05:25:37.409Z,37.13
2022-12-04T05:26:50.666Z,34.20
2022-12-04T05:28:07.926Z,39.38
2022-12-04T05:29:17.791Z,39.88
2022-12-04T05:32:26.939Z,39.00
2022-12-04T05:33:30.128Z,34.20
2022-12-04T05:34:34.175Z,41.20
2022-12-04T05:35:38.224Z,30.62
2022-12-04T05:36:43.730Z,34.63
2022-12-04T05:37:47.747Z,35.81
2022-12-04T05:38:51.685Z,30.94
2022-12-04T05:39:56.092Z,32.87
2022-12-04T05:41:03.310Z,44.20
2022-12-04T05:42:07.489Z,37.50
2022-12-04T05:43:11.446Z,33.25
2022-12-04T05:44:15.423Z,35.69
2022-12-04T05:45:19.598Z,35.06
2022-12-04T05:46:23.732Z,35.44
2022-12-04T05:47:27.995Z,34.33
2022-12-04T05:48:32.520Z,33.20
2022-12-04T05:49:36.866Z,31.94
2022-12-04T05:50:41.019Z,40.38
2022-12-04T05:51:50.972Z,34.00
2022-12-04T05:52:54.927Z,36.63
2022-12-04T05:53:59.043Z,34.53
2022-12-04T05:55:03.133Z,34.63
2022-12-04T05:56:09.099Z,29.93
2022-12-04T05:57:13.071Z,26.12
2022-12-04T05:58:17.221Z,27.00
2022-12-04T05:59:22.636Z,27.81
2022-12-04T06:00:28.329Z,31.50
2022-12-04T06:01:32.542Z,29.00
2022-12-04T06:02:39.384Z,34.33
2022-12-04T06:03:45.007Z,29.00
2022-12-04T06:04:49.213Z,22.13
2022-12-04T06:05:53.445Z,31.31
2022-12-04T06:07:08.044Z,31.73
2022-12-04T06:08:08.960Z,32.38
2022-12-04T06:09:14.707Z,32.47
2022-12-04T06:10:19.240Z,30.31
2022-12-04T06:11:26.412Z,29.63
2022-12-04T06:12:31.509Z,20.31
2022-12-04T06:13:35.568Z,33.50
2022-12-04T06:14:40.143Z,29.75
2022-12-04T06:15:47.324Z,26.12
2022-12-04T06:16:53.445Z,37.13
2022-12-04T06:17:57.491Z,24.75
2022-12-04T06:19:05.705Z,30.69
2022-12-04T06:20:13.415Z,33.25
2022-12-04T06:21:17.988Z,28.69
2022-12-04T06:22:22.216Z,28.25
2022-12-04T06:23:26.340Z,32.13
2022-12-04T06:24:30.634Z,31.06
2022-12-04T06:25:35.399Z,35.67
2022-12-04T06:26:57.548Z,34.50
2022-12-04T06:27:45.137Z,26.37
2022-12-04T06:28:49.525Z,36.94
2022-12-04T06:29:56.729Z,36.81
2022-12-04T06:31:09.043Z,33.06
2022-12-04T06:32:19.446Z,28.50
2022-12-04T06:33:18.768Z,34.56
2022-12-04T06:34:23.075Z,33.88
2022-12-04T06:35:27.132Z,34.94
2022-12-04T06:36:31.312Z,32.87
2022-12-04T06:37:35.326Z,39.75
2022-12-04T06:38:40.782Z,26.37
2022-12-04T06:39:44.820Z,26.75
2022-12-04T06:40:48.877Z,36.69
2022-12-04T06:41:52.945Z,32.94
2022-12-04T06:42:57.074Z,31.87
2022-12-04T06:44:01.117Z,38.07
2022-12-04T06:45:05.630Z,44.00
2022-12-04T06:46:13.851Z,44.50
2022-12-04T06:47:17.907Z,38.53
2022-12-04T06:48:21.883Z,39.81
2022-12-04T06:49:25.853Z,41.00
2022-12-04T06:50:29.844Z,32.47
2022-12-04T06:51:39.267Z,42.33
2022-12-04T06:52:43.742Z,34.80
2022-12-04T06:53:48.416Z,39.19
2022-12-04T06:54:52.484Z,32.69
2022-12-04T06:55:58.045Z,31.87
2022-12-04T06:57:02.011Z,40.31
2022-12-04T06:58:06.044Z,30.40
2022-12-04T06:59:11.321Z,35.47
2022-12-04T07:00:17.352Z,29.31
2022-12-04T07:01:24.479Z,33.47
2022-12-04T07:02:31.953Z,30.75
2022-12-04T07:03:34.603Z,30.19
2022-12-04T07:04:38.636Z,36.50
2022-12-04T07:05:42.660Z,34.19
2022-12-04T07:06:46.740Z,31.75
2022-12-04T07:07:50.879Z,33.94
2022-12-04T07:08:57.831Z,27.06
2022-12-04T07:10:04.499Z,30.25
2022-12-04T07:11:09.409Z,37.20
2022-12-04T07:12:13.381Z,34.38
2022-12-04T07:13:17.341Z,35.20
2022-12-04T07:14:21.378Z,36.06
2022-12-04T07:15:25.416Z,32.80
2022-12-04T07:16:32.812Z,32.94
2022-12-04T07:17:35.726Z,30.60
2022-12-04T07:18:41.489Z,32.13
2022-12-04T07:19:45.489Z,37.50
2022-12-04T07:20:49.441Z,30.60
2022-12-04T07:21:53.452Z,32.87
2022-12-04T07:23:00.265Z,35.75
2022-12-04T07:24:05.118Z,31.94
2022-12-04T07:25:09.629Z,36.38
2022-12-04T07:26:14.469Z,32.33
2022-12-04T07:27:18.410Z,32.47
2022-12-04T07:28:22.361Z,30.56
2022-12-04T07:29:26.510Z,29.19
2022-12-04T07:30:30.499Z,29.13
2022-12-04T07:31:34.569Z,31.94
2022-12-04T07:32:38.933Z,28.12
2022-12-04T07:33:43.605Z,27.00
2022-12-04T07:34:47.573Z,38.47
2022-12-04T07:36:03.726Z,33.50
2022-12-04T07:37:07.754Z,33.38
2022-12-04T07:38:13.205Z,27.25
2022-12-04T07:39:17.155Z,33.94
2022-12-04T07:40:21.169Z,36.80
2022-12-04T07:41:26.777Z,34.06
2022-12-04T07:42:30.961Z,31.73
2022-12-04T07:43:39.751Z,31.20
2022-12-04T07:44:43.759Z,30.25
2022-12-04T07:45:47.759Z,31.81
2022-12-04T07:46:51.861Z,32.00
2022-12-04T07:47:55.787Z,21.47
2022-12-04T07:49:00.162Z,30.94
2022-12-04T07:50:05.901Z,35.25
2022-12-04T07:51:23.633Z,36.19
2022-12-04T07:52:21.052Z,34.94
2022-12-04T07:53:34.004Z,33.19
2022-12-04T07:54:38.179Z,32.88
2022-12-04T07:55:43.937Z,35.31
2022-12-04T07:56:47.904Z,31.56
2022-12-04T07:57:52.028Z,31.56
2022-12-04T07:58:57.639Z,29.44
2022-12-04T08:00:01.780Z,32.13
2022-12-04T08:01:11.164Z,28.67
2022-12-04T08:02:16.916Z,26.50
2022-12-04T08:03:20.834Z,31.07
2022-12-04T08:04:26.329Z,29.25
2022-12-04T08:05:31.978Z,31.75
2022-12-04T08:06:36.225Z,26.67
2022-12-04T08:07:40.194Z,33.94
2022-12-04T08:08:44.312Z,32.67
2022-12-04T08:09:48.403Z,35.25
2022-12-04T08:10:52.387Z,29.12
2022-12-04T08:11:56.429Z,30.81
2022-12-04T08:13:00.323Z,34.25
2022-12-04T08:14:06.044Z,35.50
2022-12-04T08:15:10.662Z,32.06
2022-12-04T08:16:16.073Z,28.19
2022-12-04T08:17:22.157Z,37.33
2022-12-04T08:18:28.292Z,41.13
2022-12-04T08:19:34.783Z,35.13
2022-12-04T08:20:41.679Z,36.93
2022-12-04T08:21:45.752Z,29.87
2022-12-04T08:22:49.790Z,33.56
2022-12-04T08:23:58.138Z,32.44
2022-12-04T08:25:02.264Z,26.44
2022-12-04T08:26:07.752Z,32.00
2022-12-04T08:27:11.869Z,34.63
2022-12-04T08:28:15.862Z,37.20
2022-12-04T08:29:24.113Z,32.56
2022-12-04T08:30:28.158Z,18.53
2022-12-04T08:31:34.895Z,28.87
2022-12-04T08:32:38.971Z,25.69
2022-12-04T08:33:45.419Z,29.19
2022-12-04T08:34:55.710Z,29.07
2022-12-04T08:35:59.955Z,27.37
2022-12-04T08:37:04.022Z,36.60
2022-12-04T08:38:08.028Z,41.25
2022-12-04T08:39:12.709Z,35.81
2022-12-04T08:40:16.809Z,42.87
2022-12-04T08:41:24.460Z,38.63
2022-12-04T08:42:30.346Z,24.50
2022-12-04T08:43:35.047Z,20.69
2022-12-04T08:44:39.099Z,24.69
2022-12-04T08:45:43.310Z,30.06
2022-12-04T08:46:47.528Z,34.19
2022-12-04T08:47:52.676Z,30.20
2022-12-04T08:48:57.042Z,23.38
2022-12-04T08:50:01.087Z,27.13
2022-12-04T08:51:06.157Z,27.33
2022-12-04T08:52:10.377Z,27.19
2022-12-04T08:53:14.522Z,25.37
2022-12-04T08:54:18.603Z,21.00
2022-12-04T08:55:22.723Z,23.38
2022-12-04T08:56:28.267Z,23.94
2022-12-04T08:57:32.294Z,23.56
2022-12-04T08:58:36.373Z,27.69
2022-12-04T08:59:40.398Z,27.56
2022-12-04T09:00:49.236Z,22.25
2022-12-04T09:01:53.744Z,35.25
2022-12-04T09:02:58.059Z,24.12
2022-12-04T09:04:02.123Z,24.00
2022-12-04T09:05:06.479Z,27.44
2022-12-04T09:06:12.354Z,23.44
2022-12-04T09:07:16.326Z,24.56
2022-12-04T09:08:20.591Z,26.81
2022-12-04T09:09:24.787Z,22.37
2022-12-04T09:10:28.924Z,24.75
2022-12-04T09:11:33.057Z,23.87
2022-12-04T09:12:37.130Z,22.56
2022-12-04T09:13:42.613Z,28.19
2022-12-04T09:14:46.743Z,21.56
2022-12-04T09:15:50.843Z,18.94
2022-12-04T09:16:55.680Z,22.19
2022-12-04T09:17:59.941Z,21.00
2022-12-04T09:19:04.048Z,20.69
2022-12-04T09:20:08.904Z,17.12
2022-12-04T09:21:15.578Z,21.56
2022-12-04T09:22:19.615Z,21.12
2022-12-04T09:23:23.951Z,18.87
2022-12-04T09:24:29.536Z,18.69
2022-12-04T09:25:36.150Z,21.75
2022-12-04T09:26:40.277Z,21.00
2022-12-04T09:27:44.348Z,20.12
2022-12-04T09:28:49.776Z,18.31
2022-12-04T09:29:54.276Z,20.25
2022-12-04T09:31:04.363Z,16.87
2022-12-04T09:32:08.333Z,16.12
2022-12-04T09:33:12.512Z,21.75
2022-12-04T09:34:16.542Z,19.62
2022-12-04T09:35:20.441Z,20.19
2022-12-04T09:36:24.584Z,20.69
2022-12-04T09:37:28.477Z,18.25
2022-12-04T09:38:32.685Z,17.37
2022-12-04T09:39:36.640Z,20.94
2022-12-04T09:40:52.630Z,16.87
2022-12-04T09:42:16.324Z,22.69
2022-12-04T09:43:23.321Z,20.75
2022-12-04T09:44:36.293Z,17.87
2022-12-04T09:45:49.051Z,20.00
2022-12-04T09:47:02.406Z,19.19
2022-12-04T09:48:09.598Z,19.37
2022-12-04T09:49:16.614Z,22.75
2022-12-04T09:50:29.418Z,16.44
2022-12-04T09:51:35.546Z,20.12
2022-12-04T09:52:48.635Z,17.25
2022-12-04T09:53:58.364Z,19.87
2022-12-04T09:55:05.091Z,16.44
2022-12-04T09:56:12.681Z,18.81
2022-12-04T09:57:28.718Z,15.31
2022-12-04T09:58:47.400Z,19.87
2022-12-04T09:59:53.494Z,16.75
2022-12-04T10:01:00.666Z,19.19
2022-12-04T10:02:24.059Z,12.37
2022-12-04T10:03:30.443Z,13.94
2022-12-04T10:04:34.557Z,14.63
2022-12-04T10:05:41.483Z,15.19
2022-12-04T10:07:06.169Z,19.44
2022-12-04T10:08:29.657Z,16.19
2022-12-04T14:26:00.152Z,8.94
2022-12-04T14:27:34.150Z,12.63
2022-12-04T14:28:43.581Z,15.00
2022-12-04T14:29:52.191Z,15.38
2022-12-04T14:31:29.316Z,12.25
2022-12-04T14:32:37.977Z,11.31
2022-12-04T14:33:54.296Z,12.19
2022-12-04T14:34:59.578Z,11.38
2022-12-04T14:36:11.410Z,18.25
2022-12-04T14:37:29.714Z,16.62
2022-12-04T14:38:36.202Z,13.25
2022-12-04T14:56:28.678Z,14.38
2022-12-04T14:57:56.305Z,12.50
2022-12-04T14:59:03.247Z,12.56
2022-12-04T15:00:13.196Z,15.81
2022-12-04T15:01:29.325Z,10.50
2022-12-04T15:02:43.924Z,14.06
2022-12-04T15:03:50.907Z,13.38
2022-12-04T15:04:55.525Z,16.75
2022-12-04T15:06:17.088Z,12.37
2022-12-04T15:07:25.829Z,14.00
2022-12-04T15:08:30.004Z,17.06
2022-12-04T15:09:36.757Z,15.88
2022-12-04T15:10:43.863Z,16.56
2022-12-04T15:13:05.797Z,14.56
2022-12-04T15:14:14.520Z,15.94
2022-12-04T15:15:27.508Z,12.56
2022-12-04T15:16:32.043Z,14.19
2022-12-04T15:17:36.118Z,18.06
2022-12-04T15:18:40.028Z,16.94
2022-12-04T15:19:44.375Z,12.13
2022-12-04T15:20:56.734Z,14.50
2022-12-04T15:22:00.953Z,11.00
2022-12-04T15:23:05.133Z,16.87
2022-12-04T15:24:21.538Z,15.25
2022-12-04T15:45:06.599Z,18.94
2022-12-04T15:46:15.571Z,19.81
2022-12-04T15:47:25.301Z,14.25
2022-12-04T15:48:32.539Z,21.56
2022-12-04T15:49:36.689Z,18.56
2022-12-04T15:50:42.852Z,19.75
2022-12-04T15:51:48.228Z,19.00
2022-12-04T15:53:03.964Z,19.62
2022-12-04T15:54:16.539Z,21.62
2022-12-04T15:55:23.146Z,13.25
2022-12-04T15:56:27.368Z,21.62
2022-12-04T15:57:42.935Z,22.94
2022-12-04T15:58:59.001Z,19.81
2022-12-04T16:00:06.205Z,23.25
2022-12-04T16:01:12.735Z,18.81
2022-12-04T16:03:50.238Z,17.31
2022-12-04T16:04:54.303Z,20.50
2022-12-04T16:06:07.257Z,22.40
2022-12-04T16:07:29.334Z,18.12
2022-12-04T16:08:36.725Z,26.19
2022-12-04T16:09:43.763Z,22.53
2022-12-04T16:10:59.184Z,20.00
2022-12-04T16:12:06.439Z,24.31
2022-12-04T16:13:13.516Z,19.56
2022-12-04T16:14:19.005Z,18.56
2022-12-04T16:15:24.985Z,25.62
2022-12-04T16:16:29.623Z,22.07
2022-12-04T16:17:34.985Z,20.88
2022-12-04T16:18:40.531Z,17.69
2022-12-04T16:19:44.569Z,17.25
2022-12-04T16:20:49.061Z,18.00
2022-12-04T16:21:53.443Z,16.81
2022-12-04T16:22:57.506Z,21.00
2022-12-04T16:24:06.408Z,17.37
2022-12-04T16:25:13.976Z,17.94
2022-12-04T16:26:20.230Z,17.87
2022-12-04T16:27:24.901Z,18.19
2022-12-04T16:28:30.053Z,16.00
2022-12-04T16:29:35.722Z,16.87
2022-12-04T16:30:40.209Z,18.50
2022-12-04T16:31:44.479Z,14.25
2022-12-04T16:32:48.529Z,16.56
2022-12-04T16:33:52.796Z,15.50
2022-12-04T16:34:57.036Z,19.87
2022-12-04T16:36:05.181Z,17.06
2022-12-04T16:37:18.010Z,22.37
2022-12-04T16:38:22.571Z,14.31
2022-12-04T16:39:26.540Z,16.50
2022-12-04T16:40:30.678Z,13.44
2022-12-04T16:41:35.154Z,19.50
2022-12-04T16:42:40.061Z,22.13
2022-12-04T16:43:44.407Z,18.07
2022-12-04T16:44:48.669Z,24.06
2022-12-04T16:45:55.134Z,21.50
2022-12-04T16:46:59.161Z,17.69
2022-12-04T16:48:03.357Z,21.62
2022-12-04T16:49:07.847Z,23.47
2022-12-04T16:50:12.602Z,19.56
2022-12-04T16:51:19.130Z,18.50
2022-12-04T16:52:23.059Z,23.69
2022-12-04T16:53:27.108Z,21.06
2022-12-04T16:54:31.128Z,27.81
2022-12-04T16:55:37.919Z,19.06
2022-12-04T16:56:41.936Z,28.56
2022-12-04T16:57:46.143Z,24.50
2022-12-04T16:58:50.758Z,21.00
2022-12-04T16:59:55.430Z,21.06
2022-12-04T17:01:03.811Z,18.00
2022-12-04T17:02:10.944Z,19.25
2022-12-04T17:03:26.978Z,19.06
2022-12-04T17:04:31.096Z,15.33
2022-12-04T17:05:35.151Z,17.19
2022-12-04T17:06:39.527Z,16.06
2022-12-04T17:07:43.688Z,15.38
2022-12-04T17:08:47.772Z,15.81
2022-12-04T17:09:51.774Z,15.06
2022-12-04T17:10:56.167Z,20.88
2022-12-04T17:12:01.784Z,15.63
2022-12-04T17:13:05.849Z,19.06
2022-12-04T17:14:11.060Z,15.63
2022-12-04T17:15:15.667Z,16.87
2022-12-04T17:16:20.274Z,17.12
2022-12-04T17:17:24.354Z,19.62
2022-12-04T17:18:28.436Z,22.31
2022-12-04T17:19:32.413Z,16.62
2022-12-04T17:20:38.257Z,14.38
2022-12-04T17:21:42.465Z,17.87
2022-12-04T17:22:46.493Z,19.00
2022-12-04T17:23:51.829Z,18.94
2022-12-04T17:24:56.482Z,13.31
2022-12-04T17:26:05.634Z,15.00
2022-12-04T17:27:12.011Z,17.12
2022-12-04T17:28:16.418Z,13.62
2022-12-04T17:29:20.733Z,18.56
2022-12-04T17:30:25.006Z,17.40
2022-12-04T17:31:29.728Z,18.81
2022-12-04T17:32:34.781Z,14.56
2022-12-04T17:33:41.663Z,10.13
2022-12-04T17:34:47.578Z,9.75
2022-12-04T17:35:53.272Z,20.94
2022-12-04T17:36:57.396Z,11.38
2022-12-04T17:38:05.865Z,19.75
2022-12-04T17:39:07.037Z,17.00
2022-12-04T17:40:12.517Z,13.31
2022-12-04T17:41:19.971Z,11.38
2022-12-04T17:42:24.081Z,16.50
2022-12-04T17:43:30.288Z,16.44
2022-12-04T17:44:34.384Z,14.56
2022-12-04T17:45:40.834Z,13.88
2022-12-04T17:46:45.017Z,12.37
2022-12-04T17:47:49.222Z,14.44
2022-12-04T17:48:54.847Z,14.56
2022-12-04T17:50:00.370Z,14.25
2022-12-04T17:51:13.222Z,18.12
2022-12-04T17:52:17.544Z,13.75
2022-12-04T17:53:26.134Z,16.06
2022-12-04T17:54:30.474Z,18.56
2022-12-04T17:55:37.386Z,17.75
2022-12-04T17:56:47.431Z,16.56
2022-12-04T17:57:47.262Z,15.50
2022-12-04T17:58:51.962Z,13.06
2022-12-04T17:59:57.118Z,18.44
2022-12-04T18:01:19.216Z,11.19
2022-12-04T18:02:25.106Z,14.56
2022-12-04T18:03:29.480Z,16.62
2022-12-04T18:04:35.254Z,15.25
2022-12-04T18:05:39.330Z,13.56
2022-12-04T18:06:44.250Z,17.00
2022-12-04T18:07:48.420Z,13.62
2022-12-04T18:08:53.482Z,10.00
2022-12-04T18:09:57.825Z,16.50
2022-12-04T18:11:04.799Z,16.06
2022-12-04T18:12:08.927Z,17.87
2022-12-04T18:13:13.047Z,16.69
2022-12-04T18:14:20.021Z,15.50
2022-12-04T18:15:24.134Z,11.00
2022-12-04T18:16:30.862Z,16.00
2022-12-04T18:17:35.017Z,14.00
2022-12-04T18:18:39.714Z,13.75
2022-12-04T18:19:43.840Z,7.62
2022-12-04T18:20:48.067Z,17.37
2022-12-04T18:21:55.226Z,18.12
2022-12-04T18:22:59.147Z,15.44
2022-12-04T18:24:04.787Z,15.53
2022-12-04T18:25:11.247Z,17.00
2022-12-04T18:26:18.452Z,14.06
2022-12-04T18:27:23.999Z,11.50
2022-12-04T18:28:32.695Z,14.50
2022-12-04T18:29:37.056Z,17.44
2022-12-04T18:30:41.269Z,13.88
2022-12-04T18:31:45.480Z,8.75
2022-12-04T18:32:49.627Z,13.94
2022-12-04T18:33:54.459Z,16.69
2022-12-04T18:34:58.395Z,14.69
2022-12-04T18:36:03.080Z,12.13
2022-12-04T18:37:07.104Z,14.81
2022-12-04T18:38:11.194Z,18.00
2022-12-04T18:39:18.262Z,19.25
2022-12-04T18:40:22.290Z,14.44
2022-12-04T18:41:27.139Z,16.44
2022-12-04T18:42:31.790Z,17.94
2022-12-04T18:43:37.411Z,17.13
2022-12-04T18:44:41.432Z,17.19
2022-12-04T18:45:45.983Z,16.12
2022-12-04T18:46:51.698Z,18.67
2022-12-04T18:47:55.663Z,6.56
2022-12-04T18:49:00.226Z,18.06
2022-12-04T18:50:04.501Z,18.75
2022-12-04T18:51:28.092Z,15.94
2022-12-04T18:52:37.060Z,11.94
2022-12-04T18:53:42.215Z,14.81
2022-12-04T18:54:46.324Z,17.33
2022-12-04T18:55:50.450Z,19.12
2022-12-04T18:56:56.080Z,18.87
2022-12-04T18:58:01.823Z,14.50
2022-12-04T18:59:14.953Z,14.13
2022-12-04T19:00:19.540Z,17.69
2022-12-04T19:01:23.724Z,17.06
2022-12-04T22:37:11.083Z,21.75
2022-12-04T22:38:14.958Z,19.69
2022-12-04T22:39:19.032Z,13.69
2022-12-04T22:40:23.008Z,15.56
2022-12-04T22:41:27.556Z,17.75
2022-12-04T22:42:31.660Z,12.31
2022-12-04T22:43:40.747Z,18.12
2022-12-04T22:44:41.497Z,17.75
2022-12-04T22:45:45.481Z,13.44
2022-12-04T22:46:49.576Z,16.44
2022-12-04T22:47:53.608Z,12.69
2022-12-04T22:48:59.396Z,18.93
2022-12-04T22:50:04.381Z,17.25
2022-12-04T22:51:20.196Z,14.63
2022-12-04T22:52:24.309Z,20.88
2022-12-04T22:53:29.076Z,18.25
2022-12-04T22:54:33.179Z,19.94
2022-12-04T22:55:37.218Z,19.19
2022-12-04T22:56:41.861Z,18.87
2022-12-04T22:57:45.880Z,17.06
2022-12-04T22:58:49.875Z,24.87
2022-12-04T22:59:55.707Z,18.06
2022-12-04T23:00:59.994Z,12.06
2022-12-04T23:02:03.875Z,23.19
2022-12-04T23:03:07.868Z,22.81
2022-12-04T23:04:11.884Z,18.62
2022-12-04T23:05:16.002Z,25.12
2022-12-04T23:06:21.860Z,24.20
2022-12-04T23:07:25.831Z,18.87
2022-12-04T23:08:30.149Z,17.75
2022-12-04T23:09:34.472Z,22.25
2022-12-04T23:10:39.364Z,24.31
2022-12-04T23:11:44.217Z,16.62
2022-12-04T23:12:48.223Z,21.62
2022-12-04T23:13:54.526Z,22.87
2022-12-04T23:14:59.428Z,16.62
2022-12-04T23:16:09.306Z,18.25
2022-12-04T23:17:09.655Z,19.62
2022-12-04T23:18:13.528Z,25.44
2022-12-04T23:19:19.252Z,18.87
2022-12-04T23:20:23.200Z,15.63
2022-12-04T23:21:28.871Z,24.31
2022-12-04T23:22:32.794Z,18.31
2022-12-04T23:23:38.944Z,17.06
2022-12-04T23:24:42.956Z,20.56
2022-12-04T23:25:46.895Z,16.25
2022-12-04T23:26:50.921Z,17.75
2022-12-04T23:27:55.043Z,17.73
2022-12-04T23:28:59.496Z,14.44
2022-12-04T23:30:03.676Z,16.37
2022-12-04T23:31:07.931Z,16.50
2022-12-04T23:32:11.915Z,30.53
2022-12-04T23:33:15.865Z,16.47
2022-12-04T23:34:19.745Z,10.69
2022-12-04T23:35:23.789Z,24.80
2022-12-04T23:36:28.890Z,17.00
2022-12-04T23:37:32.973Z,18.87
2022-12-04T23:38:38.715Z,21.19
2022-12-04T23:39:42.679Z,20.88
2022-12-04T23:40:46.746Z,20.81
2022-12-04T23:41:50.585Z,16.00
2022-12-04T23:42:54.628Z,16.81
2022-12-04T23:43:58.924Z,18.73
2022-12-04T23:45:02.885Z,18.12
2022-12-04T23:46:11.475Z,11.69
2022-12-04T23:47:15.100Z,14.06
2022-12-04T23:48:19.009Z,21.12
2022-12-04T23:49:22.966Z,18.62
2022-12-04T23:50:27.165Z,12.37
2022-12-04T23:51:31.267Z,12.63
2022-12-04T23:52:35.157Z,20.75
2022-12-04T23:53:39.246Z,15.63
2022-12-04T23:54:43.207Z,17.62
2022-12-04T23:55:58.606Z,18.25
2022-12-04T23:57:02.828Z,16.25
2022-12-04T23:58:06.941Z,14.19
2022-12-04T23:59:10.910Z,19.19
